createdAt,value
2019-04-11T00:01:16.655Z,8.30
2019-04-11T00:03:47.149Z,8.20
2019-04-11T00:06:17.892Z,8.20
2019-04-11T00:08:48.239Z,8.20
2019-04-11T00:11:19.863Z,8.20
2019-04-11T00:13:51.469Z,8.20
2019-04-11T00:16:22.045Z,8.20
2019-04-11T00:18:52.403Z,8.20
2019-04-11T00:21:22.832Z,8.20
2019-04-11T00:23:54.424Z,8.10
2019-04-11T00:26:25.022Z,8.10
2019-04-11T00:28:56.257Z,8.10
2019-04-11T00:31:26.709Z,8.00
2019-04-11T00:33:57.030Z,8.00
2019-04-11T00:36:28.408Z,8.00
2019-04-11T00:38:59.351Z,8.00
2019-04-11T00:41:30.814Z,7.90
2019-04-11T00:44:01.311Z,7.80
2019-04-11T00:46:32.060Z,7.80
2019-04-11T00:49:02.505Z,7.70
2019-04-11T00:51:33.866Z,7.60
2019-04-11T00:54:04.782Z,7.60
2019-04-11T00:56:35.256Z,7.50
2019-04-11T00:59:05.889Z,7.50
2019-04-11T01:01:36.662Z,7.40
2019-04-11T01:04:07.612Z,7.30
2019-04-11T01:06:38.461Z,7.30
2019-04-11T01:09:10.055Z,7.30
2019-04-11T01:11:41.503Z,7.20
2019-04-11T01:14:13.170Z,7.00
2019-04-11T01:16:48.567Z,7.00
2019-04-11T01:19:19.481Z,7.00
2019-04-11T01:21:50.938Z,6.90
2019-04-11T01:24:21.839Z,7.00
2019-04-11T01:26:52.435Z,7.00
2019-04-11T01:29:23.071Z,7.10
2019-04-11T01:31:58.134Z,7.10
2019-04-11T01:34:28.768Z,7.20
2019-04-11T01:36:59.606Z,7.20
2019-04-11T01:39:51.657Z,7.20
2019-04-11T01:42:22.807Z,7.30
2019-04-11T01:44:53.417Z,7.30
2019-04-11T01:47:42.810Z,7.20
2019-04-11T01:50:14.904Z,7.20
2019-04-11T01:52:46.592Z,7.10
2019-04-11T01:55:17.207Z,7.00
2019-04-11T01:57:47.594Z,7.00
2019-04-11T02:00:42.049Z,7.00
2019-04-11T02:03:15.000Z,6.80
2019-04-11T02:05:45.538Z,6.90
2019-04-11T02:08:17.390Z,6.90
2019-04-11T02:10:48.747Z,6.80
2019-04-11T02:13:19.546Z,6.70
2019-04-11T02:15:49.996Z,6.70
2019-04-11T02:18:21.472Z,6.60
2019-04-11T02:20:52.070Z,6.60
2019-04-11T02:23:32.516Z,6.70
2019-04-11T02:26:16.706Z,6.80
2019-04-11T02:28:47.370Z,6.80
2019-04-11T02:31:19.690Z,6.80
2019-04-11T02:33:51.067Z,6.90
2019-04-11T02:36:22.439Z,7.00
2019-04-11T02:38:56.501Z,7.00
2019-04-11T02:41:25.453Z,7.00
2019-04-11T02:43:57.547Z,7.10
2019-04-11T02:46:35.274Z,7.10
2019-04-11T02:49:01.503Z,7.10
2019-04-11T02:51:32.381Z,7.10
2019-04-11T02:54:04.721Z,7.10
2019-04-11T02:56:36.530Z,7.00
2019-04-11T02:59:07.312Z,7.00
2019-04-11T03:01:37.753Z,7.00
2019-04-11T03:04:08.253Z,6.90
2019-04-11T03:06:39.630Z,6.90
2019-04-11T03:09:10.924Z,6.90
2019-04-11T03:11:42.950Z,6.90
2019-04-11T03:14:14.292Z,7.00
2019-04-11T03:16:56.833Z,6.90
2019-04-11T03:19:35.149Z,6.90
2019-04-11T03:21:52.214Z,7.00
2019-04-11T03:24:24.283Z,7.00
2019-04-11T03:26:56.384Z,6.90
2019-04-11T03:29:28.629Z,7.00
2019-04-11T03:32:43.097Z,6.90
2019-04-11T03:37:44.568Z,6.90
2019-04-11T03:39:57.011Z,6.90
2019-04-11T03:42:28.528Z,6.90
2019-04-11T03:44:47.115Z,6.90
2019-04-11T03:47:31.083Z,7.00
2019-04-11T03:49:51.963Z,6.90
2019-04-11T03:52:19.409Z,6.90
2019-04-11T03:54:51.313Z,6.90
2019-04-11T03:57:23.507Z,6.90
2019-04-11T03:59:55.017Z,6.80
2019-04-11T04:02:28.257Z,6.70
2019-04-11T04:04:59.200Z,6.70
2019-04-11T04:07:29.807Z,6.60
2019-04-11T04:10:02.745Z,6.70
2019-04-11T04:12:33.685Z,6.70
2019-04-11T04:15:42.199Z,6.60
2019-04-11T04:18:12.245Z,6.60
2019-04-11T04:21:09.170Z,6.70
2019-04-11T04:23:45.384Z,6.70
2019-04-11T04:26:16.895Z,6.70
2019-04-11T04:28:48.071Z,6.70
2019-04-11T04:31:18.935Z,6.70
2019-04-11T04:33:49.381Z,6.70
2019-04-11T04:36:19.751Z,6.70
2019-04-11T04:38:50.510Z,6.70
2019-04-11T04:41:30.803Z,6.70
2019-04-11T04:43:54.877Z,6.70
2019-04-11T04:46:43.526Z,6.70
2019-04-11T04:48:58.547Z,6.50
2019-04-11T04:51:29.049Z,6.50
2019-04-11T04:54:01.462Z,6.60
2019-04-11T04:56:33.106Z,6.60
2019-04-11T04:59:04.971Z,6.60
2019-04-11T05:01:37.342Z,6.60
2019-04-11T05:04:09.145Z,6.70
2019-04-11T05:06:41.883Z,6.70
2019-04-11T05:09:12.894Z,6.70
2019-04-11T05:11:44.612Z,6.70
2019-04-11T05:14:15.363Z,6.70
2019-04-11T05:16:46.124Z,6.70
2019-04-11T05:19:16.983Z,6.80
2019-04-11T05:21:47.820Z,6.60
2019-04-11T05:24:18.698Z,6.70
2019-04-11T05:26:50.212Z,6.60
2019-04-11T05:29:21.599Z,6.60
2019-04-11T05:31:52.264Z,6.70
2019-04-11T05:34:23.837Z,6.70
2019-04-11T05:36:55.426Z,6.80
2019-04-11T05:39:26.029Z,6.80
2019-04-11T05:41:56.753Z,6.70
2019-04-11T05:44:28.403Z,6.80
2019-04-11T05:47:01.884Z,6.80
2019-04-11T05:49:54.770Z,6.70
2019-04-11T05:52:27.400Z,6.70
2019-04-11T05:55:00.703Z,6.70
2019-04-11T05:57:36.688Z,6.80
2019-04-11T06:00:04.012Z,7.00
2019-04-11T06:02:41.637Z,7.10
2019-04-11T06:05:19.331Z,7.30
2019-04-11T06:07:57.342Z,7.30
2019-04-11T06:10:31.091Z,7.20
2019-04-11T06:13:20.473Z,7.00
2019-04-11T06:15:53.614Z,7.00
2019-04-11T06:18:50.118Z,7.10
2019-04-11T06:21:33.923Z,7.10
2019-04-11T06:24:22.269Z,7.20
2019-04-11T06:27:13.642Z,7.20
2019-04-11T06:29:52.982Z,7.30
2019-04-11T06:33:00.596Z,7.30
2019-04-11T06:35:52.887Z,7.30
2019-04-11T06:38:49.177Z,7.30
2019-04-11T06:41:38.878Z,7.40
2019-04-11T06:44:32.293Z,7.30
2019-04-11T06:47:29.115Z,7.30
2019-04-11T06:50:27.644Z,7.30
2019-04-11T06:52:58.316Z,7.30
2019-04-11T06:55:46.831Z,7.30
2019-04-11T06:58:21.459Z,7.40
2019-04-11T07:00:57.843Z,7.50
2019-04-11T07:03:33.697Z,7.40
2019-04-11T07:06:11.246Z,7.60
2019-04-11T07:09:03.942Z,7.70
2019-04-11T07:11:44.796Z,7.70
2019-04-11T07:14:43.375Z,7.90
2019-04-11T07:17:31.794Z,7.80
2019-04-11T07:20:27.333Z,7.90
2019-04-11T07:23:15.654Z,7.80
2019-04-11T07:26:00.312Z,8.00
2019-04-11T07:28:50.126Z,8.00
2019-04-11T07:31:39.727Z,8.00
2019-04-11T07:34:37.737Z,8.10
2019-04-11T07:37:26.129Z,8.00
2019-04-11T07:40:26.622Z,8.10
2019-04-11T07:43:19.530Z,8.20
2019-04-11T07:46:25.419Z,8.30
2019-04-11T07:48:59.824Z,8.20
2019-04-11T07:51:49.133Z,8.30
2019-04-11T07:54:22.374Z,8.30
2019-04-11T07:57:21.438Z,8.30
2019-04-11T08:00:10.625Z,8.40
2019-04-11T08:02:59.916Z,8.30
2019-04-11T08:05:55.069Z,8.20
2019-04-11T08:08:39.066Z,8.10
2019-04-11T08:11:13.944Z,7.90
2019-04-11T08:13:57.235Z,7.90
2019-04-11T08:16:45.487Z,8.00
2019-04-11T08:19:53.502Z,8.00
2019-04-11T08:22:39.182Z,8.10
2019-04-11T08:25:25.023Z,8.20
2019-04-11T08:28:04.129Z,8.10
2019-04-11T08:30:52.034Z,8.10
2019-04-11T08:33:22.566Z,8.00
2019-04-11T08:36:24.067Z,8.00
2019-04-11T08:38:54.407Z,8.00
2019-04-11T08:41:42.023Z,8.10
2019-04-11T08:44:22.270Z,8.30
2019-04-11T08:46:58.077Z,8.50
2019-04-11T08:49:33.855Z,8.60
2019-04-11T08:52:09.714Z,8.70
2019-04-11T08:55:02.178Z,8.80
2019-04-11T08:57:38.317Z,8.90
2019-04-11T09:00:28.317Z,9.20
2019-04-11T09:03:17.908Z,9.40
2019-04-11T09:06:16.665Z,9.60
2019-04-11T09:09:11.819Z,9.80
2019-04-11T09:11:44.878Z,10.10
2019-04-11T09:14:33.219Z,10.10
2019-04-11T09:17:23.239Z,10.20
2019-04-11T09:20:31.747Z,10.20
2019-04-11T09:23:06.961Z,10.30
2019-04-11T09:25:59.408Z,10.40
2019-04-11T09:28:44.213Z,10.30
2019-04-11T09:31:43.891Z,10.20
2019-04-11T09:34:28.605Z,10.40
2019-04-11T09:37:03.196Z,10.40
2019-04-11T09:39:42.071Z,10.30
2019-04-11T09:42:34.610Z,10.30
2019-04-11T09:45:27.799Z,10.50
2019-04-11T09:48:33.539Z,10.60
2019-04-11T09:51:42.275Z,10.60
2019-04-11T09:54:37.673Z,10.70
2019-04-11T09:57:32.967Z,10.70
2019-04-11T10:00:26.698Z,10.80
2019-04-11T10:03:04.388Z,10.70
2019-04-11T10:05:54.633Z,10.80
2019-04-11T10:08:42.045Z,10.60
2019-04-11T10:11:30.471Z,10.50
2019-04-11T10:14:09.325Z,10.70
2019-04-11T10:16:58.161Z,10.80
2019-04-11T10:19:48.417Z,10.90
2019-04-11T10:22:38.322Z,11.00
2019-04-11T10:25:16.001Z,11.20
2019-04-11T10:28:11.609Z,11.10
2019-04-11T10:30:59.916Z,11.10
2019-04-11T10:33:59.513Z,11.10
2019-04-11T10:36:55.851Z,10.90
2019-04-11T10:39:54.103Z,10.80
2019-04-11T10:42:26.676Z,10.60
2019-04-11T10:45:25.297Z,10.90
2019-04-11T10:47:58.192Z,11.10
2019-04-11T10:50:56.761Z,11.60
2019-04-11T10:53:27.932Z,11.60
2019-04-11T10:56:32.702Z,11.70
2019-04-11T10:59:04.999Z,11.80
2019-04-11T11:01:54.473Z,11.80
2019-04-11T11:04:27.732Z,12.00
2019-04-11T11:07:02.317Z,12.10
2019-04-11T11:10:00.928Z,12.30
2019-04-11T11:12:50.264Z,12.50
2019-04-11T11:15:31.774Z,12.70
2019-04-11T11:20:58.517Z,13.00
2019-04-11T11:23:44.989Z,12.90
2019-04-11T11:26:33.914Z,12.70
2019-04-11T11:29:22.045Z,13.00
2019-04-11T11:32:05.146Z,14.10
2019-04-11T11:34:52.823Z,14.50
2019-04-11T11:37:39.561Z,14.80
2019-04-11T11:40:32.079Z,15.50
2019-04-11T11:43:21.453Z,15.60
2019-04-11T11:46:08.509Z,16.00
2019-04-11T11:48:41.774Z,16.10
2019-04-11T11:51:29.502Z,16.50
2019-04-11T11:54:11.618Z,16.50
2019-04-11T11:56:42.782Z,17.40
2019-04-11T11:59:27.368Z,17.60
2019-04-11T12:02:02.282Z,17.90
2019-04-11T12:04:52.014Z,17.80
2019-04-11T12:07:25.875Z,17.60
2019-04-11T12:10:17.373Z,17.80
2019-04-11T12:13:12.853Z,18.70
2019-04-11T12:16:01.589Z,19.50
2019-04-11T12:18:53.045Z,19.40
2019-04-11T12:21:28.042Z,18.30
2019-04-11T12:24:32.399Z,17.30
2019-04-11T12:27:20.866Z,16.80
2019-04-11T12:30:10.907Z,16.50
2019-04-11T12:32:49.926Z,16.20
2019-04-11T12:35:40.105Z,15.80
2019-04-11T12:38:25.687Z,15.70
2019-04-11T12:41:33.143Z,15.30
2019-04-11T12:44:22.638Z,14.70
2019-04-11T12:47:21.021Z,14.20
2019-04-11T12:50:08.967Z,14.40
2019-04-11T12:52:50.617Z,14.50
2019-04-11T12:55:29.461Z,14.30
2019-04-11T12:58:08.870Z,14.10
2019-04-11T13:00:58.290Z,14.00
2019-04-11T13:03:56.486Z,13.90
2019-04-11T13:06:35.653Z,14.20
2019-04-11T13:09:25.795Z,13.90
2019-04-11T13:11:56.412Z,13.70
2019-04-11T13:14:51.752Z,13.80
2019-04-11T13:17:30.020Z,13.60
2019-04-11T13:20:26.895Z,13.80
2019-04-11T13:23:00.846Z,13.80
2019-04-11T13:26:05.476Z,13.90
2019-04-11T13:28:35.979Z,13.80
2019-04-11T13:31:24.030Z,13.50
2019-04-11T13:33:57.037Z,13.60
2019-04-11T13:36:52.342Z,13.50
2019-04-11T13:39:22.825Z,13.50
2019-04-11T13:42:08.125Z,13.60
2019-04-11T13:44:40.005Z,13.60
2019-04-11T13:47:47.755Z,13.70
2019-04-11T13:50:19.225Z,13.80
2019-04-11T13:53:08.624Z,13.60
2019-04-11T13:55:42.223Z,13.40
2019-04-11T13:58:30.618Z,13.30
2019-04-11T14:01:04.145Z,13.20
2019-04-11T14:03:59.321Z,13.20
2019-04-11T14:06:30.809Z,13.00
2019-04-11T14:09:11.661Z,13.20
2019-04-11T14:11:45.036Z,13.30
2019-04-11T14:14:18.509Z,13.30
2019-04-11T14:16:59.527Z,13.30
2019-04-11T14:19:49.514Z,13.40
2019-04-11T14:22:26.750Z,13.30
2019-04-11T14:25:18.377Z,13.40
2019-04-11T14:27:50.601Z,13.20
2019-04-11T14:30:46.680Z,12.90
2019-04-11T14:33:18.090Z,12.90
2019-04-11T14:36:19.023Z,12.70
2019-04-11T14:38:52.201Z,12.70
2019-04-11T14:41:50.047Z,12.60
2019-04-11T14:44:20.575Z,12.60
2019-04-11T14:47:21.931Z,12.50
2019-04-11T14:49:57.777Z,12.40
2019-04-11T14:52:53.176Z,12.30
2019-04-11T14:55:24.963Z,12.00
2019-04-11T14:58:10.474Z,12.10
2019-04-11T15:00:42.000Z,12.10
2019-04-11T15:03:43.349Z,12.20
2019-04-11T15:06:20.038Z,12.00
2019-04-11T15:09:08.010Z,12.20
2019-04-11T15:12:00.102Z,12.30
2019-04-11T15:15:07.599Z,12.30
2019-04-11T15:17:39.579Z,12.20
2019-04-11T15:20:36.131Z,12.10
2019-04-11T15:23:10.313Z,12.10
2019-04-11T15:26:08.975Z,12.20
2019-04-11T15:28:54.836Z,12.20
2019-04-11T15:31:42.802Z,12.10
2019-04-11T15:34:30.844Z,11.90
2019-04-11T15:37:20.197Z,12.00
2019-04-11T15:40:09.515Z,12.00
2019-04-11T15:42:58.848Z,12.00
2019-04-11T15:45:33.186Z,12.00
2019-04-11T15:48:23.580Z,11.80
2019-04-11T15:51:18.381Z,11.70
2019-04-11T15:54:24.632Z,12.00
2019-04-11T15:57:20.938Z,12.30
2019-04-11T16:00:28.355Z,12.50
2019-04-11T16:03:18.618Z,12.40
2019-04-11T16:06:06.562Z,12.10
2019-04-11T16:08:45.041Z,11.90
2019-04-11T16:11:34.350Z,12.00
2019-04-11T16:14:23.689Z,11.70
2019-04-11T16:17:14.019Z,11.60
2019-04-11T16:19:55.339Z,11.60
2019-04-11T16:22:59.907Z,11.50
2019-04-11T16:25:30.317Z,11.30
2019-04-11T16:28:22.405Z,11.20
2019-04-11T16:30:59.919Z,11.30
2019-04-11T16:33:48.135Z,11.40
2019-04-11T16:36:49.656Z,11.40
2019-04-11T16:39:36.826Z,11.50
2019-04-11T16:42:10.318Z,11.50
2019-04-11T16:44:59.663Z,11.60
2019-04-11T16:47:58.190Z,11.50
2019-04-11T16:50:28.554Z,11.40
2019-04-11T16:52:59.769Z,11.40
2019-04-11T16:55:30.388Z,11.40
2019-04-11T16:58:00.802Z,11.30
2019-04-11T17:00:31.293Z,11.20
2019-04-11T17:03:01.700Z,11.20
2019-04-11T17:05:32.270Z,11.10
2019-04-11T17:08:15.251Z,10.90
2019-04-11T17:11:18.737Z,10.90
2019-04-11T17:13:48.899Z,10.90
2019-04-11T17:16:25.123Z,10.80
2019-04-11T17:18:55.494Z,10.80
2019-04-11T17:21:25.962Z,10.70
2019-04-11T17:23:56.441Z,10.70
2019-04-11T17:26:26.899Z,10.60
2019-04-11T17:28:57.402Z,10.60
2019-04-11T17:31:27.818Z,10.50
2019-04-11T17:34:01.483Z,10.20
2019-04-11T17:36:30.797Z,10.10
2019-04-11T17:39:06.780Z,10.10
2019-04-11T17:41:35.123Z,10.00
2019-04-11T17:44:05.507Z,10.00
2019-04-11T17:46:35.949Z,9.90
2019-04-11T17:49:06.369Z,9.80
2019-04-11T17:51:36.755Z,9.70
2019-04-11T17:54:07.354Z,9.60
2019-04-11T17:56:37.805Z,9.50
2019-04-11T17:59:08.087Z,9.50
2019-04-11T18:01:38.606Z,9.40
2019-04-11T18:04:09.042Z,9.30
2019-04-11T18:06:41.088Z,9.30
2019-04-11T18:09:13.313Z,9.30
2019-04-11T18:11:43.746Z,9.20
2019-04-11T18:14:14.173Z,9.10
2019-04-11T18:16:44.581Z,9.00
2019-04-11T18:19:15.055Z,8.80
2019-04-11T18:21:45.499Z,8.80
2019-04-11T18:24:19.687Z,8.80
2019-04-11T18:26:51.813Z,8.70
2019-04-11T18:29:22.784Z,8.70
2019-04-11T18:31:52.593Z,8.70
2019-04-11T18:34:23.068Z,8.60
2019-04-11T18:36:53.383Z,8.70
2019-04-11T18:39:23.665Z,8.70
2019-04-11T18:41:54.115Z,8.60
2019-04-11T18:44:24.576Z,8.50
2019-04-11T18:46:54.970Z,8.50
2019-04-11T18:49:25.432Z,8.40
2019-04-11T18:51:55.853Z,8.50
2019-04-11T18:54:26.152Z,8.50
2019-04-11T18:56:56.621Z,8.40
2019-04-11T18:59:26.997Z,8.40
2019-04-11T19:01:57.430Z,8.40
2019-04-11T19:04:32.760Z,8.30
2019-04-11T19:06:59.982Z,8.20
2019-04-11T19:09:30.436Z,8.20
2019-04-11T19:12:01.311Z,8.20
2019-04-11T19:14:31.701Z,8.20
2019-04-11T19:17:02.043Z,8.20
2019-04-11T19:19:32.564Z,8.20
2019-04-11T19:22:02.993Z,8.10
2019-04-11T19:24:35.806Z,8.20
2019-04-11T19:27:05.703Z,8.10
2019-04-11T19:29:36.182Z,8.20
2019-04-11T19:32:06.648Z,8.10
2019-04-11T19:34:37.133Z,8.10
2019-04-11T19:37:11.678Z,8.00
2019-04-11T19:39:39.650Z,8.00
2019-04-11T19:42:09.985Z,8.00
2019-04-11T19:44:40.431Z,8.00
2019-04-11T19:47:10.937Z,8.00
2019-04-11T19:49:41.363Z,7.90
2019-04-11T19:52:11.725Z,7.90
2019-04-11T19:54:42.153Z,7.80
2019-04-11T19:57:12.555Z,7.80
2019-04-11T19:59:42.948Z,7.70
2019-04-11T20:02:13.302Z,7.60
2019-04-11T20:04:43.638Z,7.70
2019-04-11T20:07:14.117Z,7.70
2019-04-11T20:09:44.595Z,7.70
2019-04-11T20:12:15.020Z,7.70
2019-04-11T20:14:45.331Z,7.60
2019-04-11T20:17:18.795Z,7.60
2019-04-11T20:19:48.010Z,7.70
2019-04-11T20:22:18.410Z,7.80
2019-04-11T20:24:48.833Z,7.70
2019-04-11T20:27:20.263Z,7.70
2019-04-11T20:29:55.173Z,7.60
2019-04-11T20:32:23.658Z,7.60
2019-04-11T20:34:54.100Z,7.60
2019-04-11T20:37:24.689Z,7.60
2019-04-11T20:39:55.101Z,7.60
2019-04-11T20:42:25.546Z,7.60
2019-04-11T20:44:58.237Z,7.60
2019-04-11T20:47:29.575Z,7.60
2019-04-11T20:50:07.278Z,7.60
2019-04-11T20:52:32.638Z,7.60
2019-04-11T20:55:03.079Z,7.60
2019-04-11T20:57:33.541Z,7.60
2019-04-11T21:00:04.097Z,7.40
2019-04-11T21:02:34.487Z,7.50
2019-04-11T21:05:05.157Z,7.40
2019-04-11T21:07:35.522Z,7.40
2019-04-11T21:10:06.408Z,7.40
2019-04-11T21:12:37.827Z,7.40
2019-04-11T21:15:08.828Z,7.40
2019-04-11T21:17:39.244Z,7.40
2019-04-11T21:20:09.663Z,7.30
2019-04-11T21:22:40.079Z,7.40
2019-04-11T21:25:10.648Z,7.30
2019-04-11T21:27:41.001Z,7.30
2019-04-11T21:30:12.250Z,7.30
2019-04-11T21:32:42.698Z,7.40
2019-04-11T21:35:13.107Z,7.30
2019-04-11T21:37:43.465Z,7.30
2019-04-11T21:40:13.997Z,7.10
2019-04-11T21:42:44.357Z,7.10
2019-04-11T21:45:14.779Z,7.10
2019-04-11T21:47:45.239Z,7.10
2019-04-11T21:50:15.729Z,7.10
2019-04-11T21:52:46.200Z,7.20
2019-04-11T21:55:16.703Z,7.10
2019-04-11T21:57:48.888Z,7.00
2019-04-11T22:00:36.399Z,7.10
2019-04-11T22:03:06.802Z,7.10
2019-04-11T22:05:37.165Z,7.10
2019-04-11T22:08:07.578Z,7.10
2019-04-11T22:10:40.343Z,7.20
2019-04-11T22:13:10.809Z,7.10
2019-04-11T22:15:42.533Z,7.10
2019-04-11T22:18:16.784Z,7.00
2019-04-11T22:20:45.927Z,7.00
2019-04-11T22:23:16.401Z,7.00
2019-04-11T22:25:46.871Z,7.00
2019-04-11T22:28:17.303Z,6.90
2019-04-11T22:30:48.658Z,6.90
2019-04-11T22:33:35.448Z,7.00
2019-04-11T22:36:05.938Z,6.90
2019-04-11T22:38:36.384Z,6.90
2019-04-11T22:41:06.922Z,6.80
2019-04-11T22:43:38.225Z,6.80
2019-04-11T22:46:20.099Z,6.80
2019-04-11T22:48:41.174Z,6.70
2019-04-11T22:51:11.959Z,6.70
2019-04-11T22:53:43.219Z,6.80
2019-04-11T22:56:14.412Z,6.70
2019-04-11T22:58:44.790Z,6.60
2019-04-11T23:01:16.628Z,6.50
2019-04-11T23:03:50.994Z,6.60
2019-04-11T23:06:21.381Z,6.60
2019-04-11T23:08:51.684Z,6.60
2019-04-11T23:11:22.148Z,6.60
2019-04-11T23:13:53.475Z,6.60
2019-04-11T23:16:24.318Z,6.60
2019-04-11T23:18:54.751Z,6.50
2019-04-11T23:21:25.170Z,6.50
2019-04-11T23:23:55.611Z,6.50
2019-04-11T23:26:26.013Z,6.50
2019-04-11T23:28:56.300Z,6.40
2019-04-11T23:31:26.798Z,6.40
2019-04-11T23:33:57.077Z,6.40
2019-04-11T23:36:27.529Z,6.40
2019-04-11T23:38:57.975Z,6.40
2019-04-11T23:41:28.414Z,6.30
2019-04-11T23:43:58.721Z,6.30
2019-04-11T23:46:29.194Z,6.30
2019-04-11T23:48:59.662Z,6.40
2019-04-11T23:51:29.964Z,6.30
2019-04-11T23:54:00.460Z,6.40
2019-04-11T23:56:31.371Z,6.30
2019-04-11T23:59:02.618Z,6.40
